sensor_id;sensor_type;location;lat;lon;timestamp;pressure;altitude;pressure_sealevel;temperature;humidity
44297;BME280;51842;47.450;8.654;2023-02-07T00:01:32;96792.19;;;-3.27;90.48
44297;BME280;51842;47.450;8.654;2023-02-07T00:04:17;96793.00;;;-3.26;90.20
44297;BME280;51842;47.450;8.654;2023-02-07T00:06:46;96798.22;;;-3.26;89.85
44297;BME280;51842;47.450;8.654;2023-02-07T00:09:14;96781.44;;;-3.32;90.13
44297;BME280;51842;47.450;8.654;2023-02-07T00:11:45;96757.59;;;-3.37;89.75
44297;BME280;51842;47.450;8.654;2023-02-07T00:14:11;96754.69;;;-3.34;89.67
44297;BME280;51842;47.450;8.654;2023-02-07T00:16:39;96747.47;;;-3.40;89.41
44297;BME280;51842;47.450;8.654;2023-02-07T00:19:05;96753.13;;;-3.44;89.36
44297;BME280;51842;47.450;8.654;2023-02-07T00:21:34;96750.22;;;-3.41;89.09
44297;BME280;51842;47.450;8.654;2023-02-07T00:24:00;96750.38;;;-3.43;89.13
44297;BME280;51842;47.450;8.654;2023-02-07T00:26:27;96756.03;;;-3.47;89.73
44297;BME280;51842;47.450;8.654;2023-02-07T00:28:55;96753.03;;;-3.53;89.59
44297;BME280;51842;47.450;8.654;2023-02-07T00:31:30;96752.06;;;-3.52;89.46
44297;BME280;51842;47.450;8.654;2023-02-07T00:34:02;96762.66;;;-3.53;89.68
44297;BME280;51842;47.450;8.654;2023-02-07T00:36:32;96762.34;;;-3.50;89.28
44297;BME280;51842;47.450;8.654;2023-02-07T00:39:04;96768.97;;;-3.56;89.72
44297;BME280;51842;47.450;8.654;2023-02-07T00:41:31;96762.56;;;-3.61;90.06
44297;BME280;51842;47.450;8.654;2023-02-07T00:43:57;96747.91;;;-3.62;90.60
44297;BME280;51842;47.450;8.654;2023-02-07T00:46:26;96750.22;;;-3.59;90.25
44297;BME280;51842;47.450;8.654;2023-02-07T00:48:52;96749.22;;;-3.58;90.27
44297;BME280;51842;47.450;8.654;2023-02-07T00:51:22;96752.44;;;-3.64;90.58
44297;BME280;51842;47.450;8.654;2023-02-07T00:53:53;96753.19;;;-3.72;91.42
44297;BME280;51842;47.450;8.654;2023-02-07T00:56:23;96761.81;;;-3.72;91.67
44297;BME280;51842;47.450;8.654;2023-02-07T00:58:52;96760.00;;;-3.71;91.87
44297;BME280;51842;47.450;8.654;2023-02-07T01:01:23;96752.50;;;-3.74;91.63
44297;BME280;51842;47.450;8.654;2023-02-07T01:03:50;96729.06;;;-3.74;92.28
44297;BME280;51842;47.450;8.654;2023-02-07T01:06:16;96739.47;;;-3.74;92.42
44297;BME280;51842;47.450;8.654;2023-02-07T01:08:43;96737.03;;;-3.76;92.19
44297;BME280;51842;47.450;8.654;2023-02-07T01:11:13;96729.88;;;-3.74;91.86
44297;BME280;51842;47.450;8.654;2023-02-07T01:13:43;96746.31;;;-3.73;91.86
44297;BME280;51842;47.450;8.654;2023-02-07T01:16:44;96742.88;;;-3.74;92.46
44297;BME280;51842;47.450;8.654;2023-02-07T01:19:12;96747.56;;;-3.77;92.61
44297;BME280;51842;47.450;8.654;2023-02-07T01:21:41;96738.66;;;-3.75;92.72
44297;BME280;51842;47.450;8.654;2023-02-07T01:24:10;96748.25;;;-3.75;92.36
44297;BME280;51842;47.450;8.654;2023-02-07T01:26:38;96740.75;;;-3.78;92.51
44297;BME280;51842;47.450;8.654;2023-02-07T01:29:05;96738.56;;;-3.83;92.69
44297;BME280;51842;47.450;8.654;2023-02-07T01:31:32;96741.16;;;-3.83;93.28
44297;BME280;51842;47.450;8.654;2023-02-07T01:34:01;96714.31;;;-3.83;92.97
44297;BME280;51842;47.450;8.654;2023-02-07T01:36:28;96726.81;;;-3.87;93.43
44297;BME280;51842;47.450;8.654;2023-02-07T01:38:56;96694.88;;;-3.89;93.22
44297;BME280;51842;47.450;8.654;2023-02-07T01:41:26;96710.66;;;-3.90;93.22
44297;BME280;51842;47.450;8.654;2023-02-07T01:46:52;96687.00;;;-3.97;92.19
44297;BME280;51842;47.450;8.654;2023-02-07T01:49:34;96683.13;;;-3.93;91.00
44297;BME280;51842;47.450;8.654;2023-02-07T01:52:14;96701.22;;;-3.91;90.19
44297;BME280;51842;47.450;8.654;2023-02-07T01:54:48;96701.06;;;-3.90;89.77
44297;BME280;51842;47.450;8.654;2023-02-07T01:57:23;96705.75;;;-3.93;90.12
44297;BME280;51842;47.450;8.654;2023-02-07T01:59:55;96711.25;;;-3.97;90.25
44297;BME280;51842;47.450;8.654;2023-02-07T02:02:25;96704.56;;;-3.99;90.64
44297;BME280;51842;47.450;8.654;2023-02-07T02:04:55;96715.13;;;-4.01;90.49
44297;BME280;51842;47.450;8.654;2023-02-07T02:07:26;96721.56;;;-4.05;90.61
44297;BME280;51842;47.450;8.654;2023-02-07T02:09:56;96728.84;;;-4.08;90.96
44297;BME280;51842;47.450;8.654;2023-02-07T02:13:15;96733.91;;;-4.07;90.51
44297;BME280;51842;47.450;8.654;2023-02-07T02:16:40;96729.38;;;-4.05;90.33
44297;BME280;51842;47.450;8.654;2023-02-07T02:26:55;96723.41;;;-4.15;91.34
44297;BME280;51842;47.450;8.654;2023-02-07T02:30:32;96720.28;;;-4.19;91.35
44297;BME280;51842;47.450;8.654;2023-02-07T02:36:52;96718.25;;;-4.25;91.87
44297;BME280;51842;47.450;8.654;2023-02-07T02:40:08;96706.50;;;-4.29;91.73
44297;BME280;51842;47.450;8.654;2023-02-07T02:45:38;96727.44;;;-4.30;92.16
44297;BME280;51842;47.450;8.654;2023-02-07T02:48:11;96731.72;;;-4.29;92.01
44297;BME280;51842;47.450;8.654;2023-02-07T02:50:47;96732.66;;;-4.30;92.07
44297;BME280;51842;47.450;8.654;2023-02-07T02:53:15;96724.84;;;-4.30;92.23
44297;BME280;51842;47.450;8.654;2023-02-07T03:03:15;96750.84;;;-4.30;91.66
44297;BME280;51842;47.450;8.654;2023-02-07T03:06:28;96762.66;;;-4.36;91.72
44297;BME280;51842;47.450;8.654;2023-02-07T03:12:15;96771.69;;;-4.30;91.65
44297;BME280;51842;47.450;8.654;2023-02-07T03:21:30;96776.50;;;-4.35;91.83
44297;BME280;51842;47.450;8.654;2023-02-07T03:24:23;96786.91;;;-4.35;91.74
44297;BME280;51842;47.450;8.654;2023-02-07T03:27:03;96792.53;;;-4.40;91.57
44297;BME280;51842;47.450;8.654;2023-02-07T03:29:39;96799.22;;;-4.37;91.62
44297;BME280;51842;47.450;8.654;2023-02-07T03:32:13;96807.72;;;-4.35;91.50
44297;BME280;51842;47.450;8.654;2023-02-07T03:35:05;96825.66;;;-4.42;91.37
44297;BME280;51842;47.450;8.654;2023-02-07T03:37:50;96839.34;;;-4.40;91.90
44297;BME280;51842;47.450;8.654;2023-02-07T03:40:17;96834.03;;;-4.38;92.12
44297;BME280;51842;47.450;8.654;2023-02-07T03:43:25;96844.44;;;-4.38;91.97
44297;BME280;51842;47.450;8.654;2023-02-07T03:45:56;96846.63;;;-4.44;92.30
44297;BME280;51842;47.450;8.654;2023-02-07T03:48:23;96854.25;;;-4.42;92.13
44297;BME280;51842;47.450;8.654;2023-02-07T03:50:55;96865.38;;;-4.40;92.70
44297;BME280;51842;47.450;8.654;2023-02-07T03:53:21;96872.75;;;-4.45;92.71
44297;BME280;51842;47.450;8.654;2023-02-07T03:55:46;96863.47;;;-4.48;92.92
44297;BME280;51842;47.450;8.654;2023-02-07T03:58:18;96866.06;;;-4.48;92.75
44297;BME280;51842;47.450;8.654;2023-02-07T04:00:44;96875.63;;;-4.48;93.00
44297;BME280;51842;47.450;8.654;2023-02-07T04:03:10;96881.09;;;-4.51;93.22
44297;BME280;51842;47.450;8.654;2023-02-07T04:05:36;96885.78;;;-4.55;93.21
44297;BME280;51842;47.450;8.654;2023-02-07T04:08:08;96888.91;;;-4.51;93.54
44297;BME280;51842;47.450;8.654;2023-02-07T04:10:34;96891.13;;;-4.56;93.86
44297;BME280;51842;47.450;8.654;2023-02-07T04:13:02;96897.28;;;-4.48;93.61
44297;BME280;51842;47.450;8.654;2023-02-07T04:15:31;96903.69;;;-4.52;93.79
44297;BME280;51842;47.450;8.654;2023-02-07T04:17:57;96899.75;;;-4.56;94.26
44297;BME280;51842;47.450;8.654;2023-02-07T04:20:23;96904.81;;;-4.54;93.96
44297;BME280;51842;47.450;8.654;2023-02-07T04:22:55;96913.84;;;-4.58;94.38
44297;BME280;51842;47.450;8.654;2023-02-07T04:25:21;96909.72;;;-4.61;94.34
44297;BME280;51842;47.450;8.654;2023-02-07T04:27:49;96923.00;;;-4.64;94.73
44297;BME280;51842;47.450;8.654;2023-02-07T04:30:27;96906.88;;;-4.68;95.16
44297;BME280;51842;47.450;8.654;2023-02-07T04:32:56;96921.66;;;-4.68;95.31
44297;BME280;51842;47.450;8.654;2023-02-07T04:35:22;96915.91;;;-4.72;95.24
44297;BME280;51842;47.450;8.654;2023-02-07T04:37:54;96908.81;;;-4.70;95.38
44297;BME280;51842;47.450;8.654;2023-02-07T04:40:20;96909.88;;;-4.72;95.34
44297;BME280;51842;47.450;8.654;2023-02-07T04:42:48;96914.81;;;-4.69;95.23
44297;BME280;51842;47.450;8.654;2023-02-07T04:45:17;96911.25;;;-4.68;95.15
44297;BME280;51842;47.450;8.654;2023-02-07T04:47:52;96925.22;;;-4.69;95.67
44297;BME280;51842;47.450;8.654;2023-02-07T04:50:23;96919.06;;;-4.68;95.27
44297;BME280;51842;47.450;8.654;2023-02-07T04:52:52;96931.78;;;-4.65;95.03
44297;BME280;51842;47.450;8.654;2023-02-07T04:55:18;96915.34;;;-4.75;95.73
44297;BME280;51842;47.450;8.654;2023-02-07T04:57:47;96930.53;;;-4.71;95.80
44297;BME280;51842;47.450;8.654;2023-02-07T05:00:14;96939.03;;;-4.69;95.45
44297;BME280;51842;47.450;8.654;2023-02-07T05:02:52;96957.66;;;-4.63;95.66
44297;BME280;51842;47.450;8.654;2023-02-07T05:05:24;96963.53;;;-4.61;95.13
44297;BME280;51842;47.450;8.654;2023-02-07T05:07:53;96974.75;;;-4.51;94.88
44297;BME280;51842;47.450;8.654;2023-02-07T05:10:22;96974.47;;;-4.48;94.71
44297;BME280;51842;47.450;8.654;2023-02-07T05:12:48;96983.78;;;-4.46;94.62
44297;BME280;51842;47.450;8.654;2023-02-07T05:15:22;96982.69;;;-4.43;94.20
44297;BME280;51842;47.450;8.654;2023-02-07T05:17:48;96975.59;;;-4.41;94.16
44297;BME280;51842;47.450;8.654;2023-02-07T05:20:14;96982.97;;;-4.36;94.21
44297;BME280;51842;47.450;8.654;2023-02-07T05:22:41;96994.88;;;-4.44;94.42
44297;BME280;51842;47.450;8.654;2023-02-07T05:25:13;96990.94;;;-4.38;94.37
44297;BME280;51842;47.450;8.654;2023-02-07T05:27:39;96981.88;;;-4.44;94.14
44297;BME280;51842;47.450;8.654;2023-02-07T05:30:07;96984.34;;;-4.42;93.98
44297;BME280;51842;47.450;8.654;2023-02-07T05:32:33;96977.50;;;-4.43;93.63
44297;BME280;51842;47.450;8.654;2023-02-07T05:35:21;96980.53;;;-4.48;93.86
44297;BME280;51842;47.450;8.654;2023-02-07T05:37:47;96986.28;;;-4.54;94.43
44297;BME280;51842;47.450;8.654;2023-02-07T05:40:13;96984.22;;;-4.60;94.64
44297;BME280;51842;47.450;8.654;2023-02-07T05:42:39;96976.41;;;-4.60;94.75
44297;BME280;51842;47.450;8.654;2023-02-07T05:45:08;96971.47;;;-4.63;94.94
44297;BME280;51842;47.450;8.654;2023-02-07T05:47:34;96968.06;;;-4.63;95.08
44297;BME280;51842;47.450;8.654;2023-02-07T05:50:00;96966.41;;;-4.65;95.02
44297;BME280;51842;47.450;8.654;2023-02-07T05:52:26;96972.13;;;-4.71;95.38
44297;BME280;51842;47.450;8.654;2023-02-07T05:54:55;96976.41;;;-4.70;95.17
44297;BME280;51842;47.450;8.654;2023-02-07T05:57:21;96975.81;;;-4.73;95.78
44297;BME280;51842;47.450;8.654;2023-02-07T05:59:50;96985.13;;;-4.80;96.25
44297;BME280;51842;47.450;8.654;2023-02-07T06:02:16;96991.56;;;-4.75;96.04
44297;BME280;51842;47.450;8.654;2023-02-07T06:04:42;96987.72;;;-4.80;96.17
44297;BME280;51842;47.450;8.654;2023-02-07T06:07:08;96984.88;;;-4.77;96.37
44297;BME280;51842;47.450;8.654;2023-02-07T06:09:34;96983.50;;;-4.81;96.82
44297;BME280;51842;47.450;8.654;2023-02-07T06:12:03;96980.75;;;-4.80;96.33
44297;BME280;51842;47.450;8.654;2023-02-07T06:14:32;96971.31;;;-4.81;97.01
44297;BME280;51842;47.450;8.654;2023-02-07T06:16:58;96973.09;;;-4.81;97.11
44297;BME280;51842;47.450;8.654;2023-02-07T06:19:26;96964.59;;;-4.83;97.10
44297;BME280;51842;47.450;8.654;2023-02-07T06:21:55;96973.38;;;-4.84;97.19
44297;BME280;51842;47.450;8.654;2023-02-07T06:24:24;96961.34;;;-4.85;97.45
44297;BME280;51842;47.450;8.654;2023-02-07T06:26:50;96962.00;;;-4.83;97.79
44297;BME280;51842;47.450;8.654;2023-02-07T06:29:16;96971.59;;;-4.84;97.44
44297;BME280;51842;47.450;8.654;2023-02-07T06:31:41;96960.50;;;-4.86;97.35
44297;BME280;51842;47.450;8.654;2023-02-07T06:34:07;96971.16;;;-4.89;97.36
44297;BME280;51842;47.450;8.654;2023-02-07T06:36:33;96967.63;;;-4.88;97.32
44297;BME280;51842;47.450;8.654;2023-02-07T06:39:02;96970.22;;;-4.88;97.38
44297;BME280;51842;47.450;8.654;2023-02-07T06:41:29;96975.25;;;-4.86;97.26
44297;BME280;51842;47.450;8.654;2023-02-07T06:43:55;96975.41;;;-4.88;97.29
44297;BME280;51842;47.450;8.654;2023-02-07T06:46:21;96976.09;;;-4.86;96.93
44297;BME280;51842;47.450;8.654;2023-02-07T06:48:47;96976.34;;;-4.89;96.68
44297;BME280;51842;47.450;8.654;2023-02-07T06:51:13;96997.03;;;-4.88;96.88
44297;BME280;51842;47.450;8.654;2023-02-07T06:53:39;97003.19;;;-4.89;96.96
44297;BME280;51842;47.450;8.654;2023-02-07T06:56:05;97015.34;;;-4.89;96.86
44297;BME280;51842;47.450;8.654;2023-02-07T06:58:31;97018.34;;;-4.94;97.20
44297;BME280;51842;47.450;8.654;2023-02-07T07:00:57;97011.94;;;-4.90;97.18
44297;BME280;51842;47.450;8.654;2023-02-07T07:03:23;97007.44;;;-4.88;97.26
44297;BME280;51842;47.450;8.654;2023-02-07T07:05:53;97010.16;;;-4.89;97.06
44297;BME280;51842;47.450;8.654;2023-02-07T07:08:18;97014.00;;;-4.83;97.20
44297;BME280;51842;47.450;8.654;2023-02-07T07:10:55;97013.88;;;-4.82;96.71
44297;BME280;51842;47.450;8.654;2023-02-07T07:13:21;97018.53;;;-4.85;97.13
44297;BME280;51842;47.450;8.654;2023-02-07T07:15:47;97018.25;;;-4.82;97.02
44297;BME280;51842;47.450;8.654;2023-02-07T07:18:13;97017.41;;;-4.83;97.64
44297;BME280;51842;47.450;8.654;2023-02-07T07:20:39;97010.56;;;-4.84;97.12
44297;BME280;51842;47.450;8.654;2023-02-07T07:23:05;97011.53;;;-4.85;97.05
44297;BME280;51842;47.450;8.654;2023-02-07T07:25:30;97014.00;;;-4.83;97.20
44297;BME280;51842;47.450;8.654;2023-02-07T07:27:56;97018.00;;;-4.79;96.97
44297;BME280;51842;47.450;8.654;2023-02-07T07:30:24;97021.25;;;-4.77;96.85
44297;BME280;51842;47.450;8.654;2023-02-07T07:32:50;97018.66;;;-4.77;96.77
44297;BME280;51842;47.450;8.654;2023-02-07T07:35:16;97018.00;;;-4.79;96.61
44297;BME280;51842;47.450;8.654;2023-02-07T07:37:42;97022.63;;;-4.73;96.53
44297;BME280;51842;47.450;8.654;2023-02-07T07:40:09;97026.19;;;-4.74;96.37
44297;BME280;51842;47.450;8.654;2023-02-07T07:42:41;97030.03;;;-4.69;96.32
44297;BME280;51842;47.450;8.654;2023-02-07T07:45:13;97040.47;;;-4.59;95.84
44297;BME280;51842;47.450;8.654;2023-02-07T07:47:42;97038.03;;;-4.51;95.70
44297;BME280;51842;47.450;8.654;2023-02-07T07:50:08;97031.31;;;-4.34;94.64
44297;BME280;51842;47.450;8.654;2023-02-07T07:52:37;97039.81;;;-4.12;94.50
44297;BME280;51842;47.450;8.654;2023-02-07T07:55:06;97042.97;;;-3.99;93.18
44297;BME280;51842;47.450;8.654;2023-02-07T07:57:32;97051.47;;;-3.97;92.25
44297;BME280;51842;47.450;8.654;2023-02-07T07:59:58;97052.00;;;-3.93;92.50
44297;BME280;51842;47.450;8.654;2023-02-07T08:02:24;97059.66;;;-3.92;91.92
44297;BME280;51842;47.450;8.654;2023-02-07T08:04:53;97069.69;;;-3.87;91.18
44297;BME280;51842;47.450;8.654;2023-02-07T08:07:19;97070.38;;;-3.85;91.92
44297;BME280;51842;47.450;8.654;2023-02-07T08:09:48;97073.53;;;-3.82;91.26
44297;BME280;51842;47.450;8.654;2023-02-07T08:12:20;97072.41;;;-3.79;90.98
44297;BME280;51842;47.450;8.654;2023-02-07T08:14:46;97059.81;;;-3.84;90.77
44297;BME280;51842;47.450;8.654;2023-02-07T08:17:15;97073.25;;;-3.88;90.72
44297;BME280;51842;47.450;8.654;2023-02-07T08:19:40;97084.19;;;-3.75;90.24
44297;BME280;51842;47.450;8.654;2023-02-07T08:22:15;97091.84;;;-3.74;90.30
44297;BME280;51842;47.450;8.654;2023-02-07T08:24:44;97086.63;;;-3.54;89.82
44297;BME280;51842;47.450;8.654;2023-02-07T08:27:10;97078.81;;;-3.44;89.01
44297;BME280;51842;47.450;8.654;2023-02-07T08:29:39;97079.75;;;-3.45;88.73
44297;BME280;51842;47.450;8.654;2023-02-07T08:32:11;97088.28;;;-3.53;88.88
44297;BME280;51842;47.450;8.654;2023-02-07T08:34:37;97072.50;;;-3.52;88.83
44297;BME280;51842;47.450;8.654;2023-02-07T08:37:09;97083.75;;;-3.41;88.57
44297;BME280;51842;47.450;8.654;2023-02-07T08:39:35;97086.75;;;-3.46;88.71
44297;BME280;51842;47.450;8.654;2023-02-07T08:42:03;97081.25;;;-3.43;88.17
44297;BME280;51842;47.450;8.654;2023-02-07T08:45:05;97081.25;;;-3.33;86.97
44297;BME280;51842;47.450;8.654;2023-02-07T08:47:31;97078.31;;;-3.20;86.65
44297;BME280;51842;47.450;8.654;2023-02-07T08:49:57;97086.47;;;-2.96;85.80
44297;BME280;51842;47.450;8.654;2023-02-07T08:52:23;97081.13;;;-2.67;84.79
44297;BME280;51842;47.450;8.654;2023-02-07T08:54:49;97078.66;;;-2.41;83.64
44297;BME280;51842;47.450;8.654;2023-02-07T08:57:15;97080.69;;;-2.35;82.89
44297;BME280;51842;47.450;8.654;2023-02-07T08:59:41;97075.59;;;-2.36;83.08
44297;BME280;51842;47.450;8.654;2023-02-07T09:02:10;97081.81;;;-2.19;81.25
44297;BME280;51842;47.450;8.654;2023-02-07T09:04:42;97070.91;;;-2.15;81.10
44297;BME280;51842;47.450;8.654;2023-02-07T09:07:14;97068.91;;;-2.03;81.85
44297;BME280;51842;47.450;8.654;2023-02-07T09:09:44;97076.59;;;-2.01;80.86
44297;BME280;51842;47.450;8.654;2023-02-07T09:12:13;97082.63;;;-1.83;80.47
44297;BME280;51842;47.450;8.654;2023-02-07T09:14:40;97076.94;;;-1.60;80.64
44297;BME280;51842;47.450;8.654;2023-02-07T09:17:07;97079.09;;;-1.56;79.97
44297;BME280;51842;47.450;8.654;2023-02-07T09:19:35;97078.50;;;-1.50;78.93
44297;BME280;51842;47.450;8.654;2023-02-07T09:22:03;97086.78;;;-1.54;79.46
44297;BME280;51842;47.450;8.654;2023-02-07T09:24:49;97085.47;;;-1.32;79.04
44297;BME280;51842;47.450;8.654;2023-02-07T09:27:18;97083.13;;;-1.18;78.82
44297;BME280;51842;47.450;8.654;2023-02-07T09:29:44;97086.84;;;-1.20;78.24
44297;BME280;51842;47.450;8.654;2023-02-07T09:32:15;97103.88;;;-0.90;78.17
44297;BME280;51842;47.450;8.654;2023-02-07T09:34:41;97090.53;;;-1.05;77.51
44297;BME280;51842;47.450;8.654;2023-02-07T09:37:07;97083.28;;;-0.85;77.03
44297;BME280;51842;47.450;8.654;2023-02-07T09:39:36;97081.25;;;-0.65;76.57
44297;BME280;51842;47.450;8.654;2023-02-07T09:42:56;97082.00;;;-0.38;75.68
44297;BME280;51842;47.450;8.654;2023-02-07T09:45:32;97080.13;;;-0.04;74.76
44297;BME280;51842;47.450;8.654;2023-02-07T09:48:36;97067.38;;;0.10;73.99
44297;BME280;51842;47.450;8.654;2023-02-07T09:51:10;97077.72;;;0.44;72.57
44297;BME280;51842;47.450;8.654;2023-02-07T09:54:11;97079.66;;;0.58;72.21
44297;BME280;51842;47.450;8.654;2023-02-07T09:56:41;97084.88;;;0.75;72.01
44297;BME280;51842;47.450;8.654;2023-02-07T10:03:17;97094.53;;;0.09;72.93
44297;BME280;51842;47.450;8.654;2023-02-07T10:06:10;97099.81;;;0.17;72.33
44297;BME280;51842;47.450;8.654;2023-02-07T10:08:39;97103.88;;;0.11;72.87
44297;BME280;51842;47.450;8.654;2023-02-07T10:11:50;97115.50;;;0.09;72.40
44297;BME280;51842;47.450;8.654;2023-02-07T10:18:09;97125.25;;;-0.26;73.13
44297;BME280;51842;47.450;8.654;2023-02-07T10:21:10;97116.34;;;0.17;72.66
44297;BME280;51842;47.450;8.654;2023-02-07T10:26:53;97124.97;;;-0.15;73.32
44297;BME280;51842;47.450;8.654;2023-02-07T10:30:23;97133.53;;;0.04;73.31
44297;BME280;51842;47.450;8.654;2023-02-07T10:32:39;97134.88;;;0.40;72.43
44297;BME280;51842;47.450;8.654;2023-02-07T10:35:33;97129.66;;;0.32;72.85
44297;BME280;51842;47.450;8.654;2023-02-07T10:38:03;97123.59;;;0.32;71.38
44297;BME280;51842;47.450;8.654;2023-02-07T10:40:59;97135.72;;;0.49;70.06
44297;BME280;51842;47.450;8.654;2023-02-07T10:43:33;97125.22;;;0.49;70.07
44297;BME280;51842;47.450;8.654;2023-02-07T10:46:08;97131.94;;;0.35;69.32
44297;BME280;51842;47.450;8.654;2023-02-07T10:48:38;97122.28;;;0.44;70.78
44297;BME280;51842;47.450;8.654;2023-02-07T10:51:55;97136.03;;;0.71;69.64
44297;BME280;51842;47.450;8.654;2023-02-07T10:54:28;97132.56;;;1.03;70.25
44297;BME280;51842;47.450;8.654;2023-02-07T10:57:00;97137.09;;;1.33;68.24
44297;BME280;51842;47.450;8.654;2023-02-07T10:59:44;97143.50;;;1.31;66.80
44297;BME280;51842;47.450;8.654;2023-02-07T11:05:26;97138.13;;;1.08;66.87
44297;BME280;51842;47.450;8.654;2023-02-07T11:08:37;97118.38;;;1.45;66.03
44297;BME280;51842;47.450;8.654;2023-02-07T11:11:31;97123.63;;;1.45;66.92
44297;BME280;51842;47.450;8.654;2023-02-07T11:14:06;97127.94;;;1.69;66.87
44297;BME280;51842;47.450;8.654;2023-02-07T11:16:35;97128.72;;;2.08;66.38
44297;BME280;51842;47.450;8.654;2023-02-07T11:19:06;97133.22;;;2.00;64.74
44297;BME280;51842;47.450;8.654;2023-02-07T11:24:29;97131.91;;;2.04;65.30
44297;BME280;51842;47.450;8.654;2023-02-07T11:27:20;97129.47;;;2.48;63.62
44297;BME280;51842;47.450;8.654;2023-02-07T11:29:58;97136.81;;;2.76;63.05
44297;BME280;51842;47.450;8.654;2023-02-07T11:32:28;97125.50;;;2.29;62.81
44297;BME280;51842;47.450;8.654;2023-02-07T11:35:06;97127.34;;;2.44;63.21
44297;BME280;51842;47.450;8.654;2023-02-07T11:37:37;97132.69;;;2.59;63.71
44297;BME280;51842;47.450;8.654;2023-02-07T11:40:58;97126.81;;;2.71;62.85
44297;BME280;51842;47.450;8.654;2023-02-07T11:43:28;97123.06;;;3.04;62.07
44297;BME280;51842;47.450;8.654;2023-02-07T11:46:04;97125.03;;;2.87;61.62
44297;BME280;51842;47.450;8.654;2023-02-07T11:48:39;97130.66;;;2.84;62.07
44297;BME280;51842;47.450;8.654;2023-02-07T11:51:16;97119.91;;;3.08;61.66
44297;BME280;51842;47.450;8.654;2023-02-07T11:53:56;97122.81;;;3.13;61.44
44297;BME280;51842;47.450;8.654;2023-02-07T11:56:51;97128.44;;;2.95;61.36
44297;BME280;51842;47.450;8.654;2023-02-07T11:59:27;97132.53;;;2.75;61.52
44297;BME280;51842;47.450;8.654;2023-02-07T12:02:00;97134.16;;;2.99;61.85
44297;BME280;51842;47.450;8.654;2023-02-07T12:04:46;97140.19;;;2.85;62.22
44297;BME280;51842;47.450;8.654;2023-02-07T12:07:46;97133.53;;;2.74;61.76
44297;BME280;51842;47.450;8.654;2023-02-07T12:10:35;97141.19;;;2.84;62.24
44297;BME280;51842;47.450;8.654;2023-02-07T12:13:23;97136.59;;;3.00;61.25
44297;BME280;51842;47.450;8.654;2023-02-07T12:15:58;97131.19;;;3.32;60.55
44297;BME280;51842;47.450;8.654;2023-02-07T12:19:00;97139.72;;;3.34;59.61
44297;BME280;51842;47.450;8.654;2023-02-07T12:25:16;97130.75;;;2.90;62.17
44297;BME280;51842;47.450;8.654;2023-02-07T12:27:50;97128.81;;;3.22;60.54
44297;BME280;51842;47.450;8.654;2023-02-07T12:30:40;97127.91;;;3.44;60.15
44297;BME280;51842;47.450;8.654;2023-02-07T12:33:43;97129.25;;;3.85;59.90
44297;BME280;51842;47.450;8.654;2023-02-07T12:36:39;97115.28;;;3.40;57.98
44297;BME280;51842;47.450;8.654;2023-02-07T12:39:26;97125.38;;;3.36;60.86
44297;BME280;51842;47.450;8.654;2023-02-07T12:44:58;97117.50;;;3.51;58.74
44297;BME280;51842;47.450;8.654;2023-02-07T12:50:59;97119.44;;;3.79;59.06
44297;BME280;51842;47.450;8.654;2023-02-07T12:54:21;97115.47;;;3.53;58.36
44297;BME280;51842;47.450;8.654;2023-02-07T12:57:38;97113.34;;;3.78;59.16
44297;BME280;51842;47.450;8.654;2023-02-07T13:07:54;97110.25;;;4.69;56.75
44297;BME280;51842;47.450;8.654;2023-02-07T13:23:49;97110.84;;;4.06;58.16
44297;BME280;51842;47.450;8.654;2023-02-07T13:26:20;97111.63;;;4.43;57.64
44297;BME280;51842;47.450;8.654;2023-02-07T13:29:03;97113.00;;;3.81;57.15
44297;BME280;51842;47.450;8.654;2023-02-07T13:31:55;97104.84;;;3.98;57.01
44297;BME280;51842;47.450;8.654;2023-02-07T13:34:57;97109.06;;;4.50;57.17
44297;BME280;51842;47.450;8.654;2023-02-07T13:38:13;97109.22;;;4.70;56.20
44297;BME280;51842;47.450;8.654;2023-02-07T13:41:22;97103.13;;;4.69;56.92
44297;BME280;51842;47.450;8.654;2023-02-07T13:44:14;97105.56;;;4.64;55.95
44297;BME280;51842;47.450;8.654;2023-02-07T13:48:00;97113.38;;;4.79;55.92
44297;BME280;51842;47.450;8.654;2023-02-07T13:51:03;97103.59;;;4.51;57.08
44297;BME280;51842;47.450;8.654;2023-02-07T13:56:59;97104.03;;;4.55;57.74
44297;BME280;51842;47.450;8.654;2023-02-07T14:00:24;97103.78;;;4.99;56.50
44297;BME280;51842;47.450;8.654;2023-02-07T14:03:30;97110.91;;;4.99;56.08
44297;BME280;51842;47.450;8.654;2023-02-07T14:06:29;97109.38;;;5.11;55.43
44297;BME280;51842;47.450;8.654;2023-02-07T14:09:41;97107.50;;;5.33;54.92
44297;BME280;51842;47.450;8.654;2023-02-07T14:12:37;97105.75;;;5.53;54.49
44297;BME280;51842;47.450;8.654;2023-02-07T14:18:04;97105.25;;;5.02;55.56
44297;BME280;51842;47.450;8.654;2023-02-07T14:23:17;97097.41;;;4.87;56.07
44297;BME280;51842;47.450;8.654;2023-02-07T14:25:46;97105.72;;;4.84;55.84
44297;BME280;51842;47.450;8.654;2023-02-07T14:28:32;97100.78;;;5.02;54.96
44297;BME280;51842;47.450;8.654;2023-02-07T14:31:29;97094.66;;;4.74;55.49
44297;BME280;51842;47.450;8.654;2023-02-07T14:34:13;97099.31;;;4.72;55.72
44297;BME280;51842;47.450;8.654;2023-02-07T14:36:41;97102.28;;;4.62;56.18
44297;BME280;51842;47.450;8.654;2023-02-07T14:41:41;97094.53;;;4.17;57.38
44297;BME280;51842;47.450;8.654;2023-02-07T14:44:28;97085.63;;;4.40;57.71
44297;BME280;51842;47.450;8.654;2023-02-07T14:47:01;97090.28;;;4.38;57.07
44297;BME280;51842;47.450;8.654;2023-02-07T14:49:46;97081.81;;;4.43;56.83
44297;BME280;51842;47.450;8.654;2023-02-07T14:52:35;97086.28;;;4.42;56.50
44297;BME280;51842;47.450;8.654;2023-02-07T14:55:17;97080.25;;;3.90;56.90
44297;BME280;51842;47.450;8.654;2023-02-07T14:58:06;97078.66;;;3.60;59.24
44297;BME280;51842;47.450;8.654;2023-02-07T15:00:47;97082.69;;;3.41;59.41
44297;BME280;51842;47.450;8.654;2023-02-07T15:03:19;97085.38;;;3.62;59.23
44297;BME280;51842;47.450;8.654;2023-02-07T15:06:00;97086.81;;;3.80;58.81
44297;BME280;51842;47.450;8.654;2023-02-07T15:08:32;97091.22;;;3.94;58.49
44297;BME280;51842;47.450;8.654;2023-02-07T15:11:11;97079.59;;;3.52;59.62
44297;BME280;51842;47.450;8.654;2023-02-07T15:13:44;97102.13;;;3.40;58.99
44297;BME280;51842;47.450;8.654;2023-02-07T15:16:25;97094.66;;;2.99;60.90
44297;BME280;51842;47.450;8.654;2023-02-07T15:21:41;97089.19;;;2.86;60.62
44297;BME280;51842;47.450;8.654;2023-02-07T15:24:36;97096.38;;;3.07;61.01